Time;durP1;ratioP1;P1;durP2;ratioP2;P2;SDS_P1;SDS_P2;PMS_P1;PMS_P2;Temp;Humidity;BMP_temperature;BMP_pressure;BME280_temperature;BME280_humidity;BME280_pressure;Samples;Min_cycle;Max_cycle;Signal;HPM_P1;HPM_P2
2022/08/25 00:01:39;;;;;;;13.27;11.40;;;;;;;;;;5042410;28;20056;-88
2022/08/25 00:04:09;;;;;;;18.08;11.40;;;;;;;;;;5044775;28;20045;-87
2022/08/25 00:06:40;;;;;;;11.80;10.63;;;;;;;;;;5040776;28;20045;-88
2022/08/25 00:09:10;;;;;;;13.30;11.75;;;;;;;;;;5041264;28;20493;-87
2022/08/25 00:11:38;;;;;;;15.45;11.55;;;;;;;;;;5043577;28;20049;-88
2022/08/25 00:14:11;;;;;;;15.07;12.63;;;;;;;;;;5043387;28;20143;-88
2022/08/25 00:16:39;;;;;;;13.52;11.70;;;;;;;;;;5041281;28;20049;-88
2022/08/25 00:19:09;;;;;;;13.55;12.15;;;;;;;;;;5041959;28;20053;-88
2022/08/25 00:21:36;;;;;;;13.18;11.85;;;;;;;;;;5041738;28;20049;-88
2022/08/25 00:24:13;;;;;;;14.10;12.60;;;;;;;;;;5042779;28;20124;-87
2022/08/25 00:26:43;;;;;;;13.77;12.10;;;;;;;;;;5042454;28;20045;-87
2022/08/25 00:29:15;;;;;;;12.80;11.50;;;;;;;;;;5028484;28;20073;-87
2022/08/25 00:31:42;;;;;;;15.02;12.30;;;;;;;;;;5041656;28;20049;-87
2022/08/25 00:34:18;;;;;;;14.05;12.52;;;;;;;;;;5041319;28;20052;-88
2022/08/25 00:36:48;;;;;;;14.45;12.98;;;;;;;;;;5040110;28;20163;-87
2022/08/25 00:39:20;;;;;;;24.98;14.68;;;;;;;;;;5039838;28;20451;-87
2022/08/25 00:41:58;;;;;;;16.65;13.20;;;;;;;;;;5039982;28;20052;-87
2022/08/25 00:44:27;;;;;;;14.93;13.00;;;;;;;;;;5040828;28;20131;-87
2022/08/25 00:46:56;;;;;;;17.83;14.70;;;;;;;;;;5043987;28;20025;-86
2022/08/25 00:49:39;;;;;;;16.00;14.32;;;;;;;;;;5061540;28;20079;-87
2022/08/25 00:52:14;;;;;;;13.65;12.43;;;;;;;;;;5046179;28;20103;-87
2022/08/25 00:55:02;;;;;;;17.95;13.30;;;;;;;;;;5042876;28;20056;-87
2022/08/25 00:57:40;;;;;;;16.38;13.65;;;;;;;;;;5041554;28;20091;-88
2022/08/25 01:00:10;;;;;;;14.83;13.40;;;;;;;;;;5039514;28;20420;-88
2022/08/25 01:02:38;;;;;;;15.45;13.85;;;;;;;;;;5023545;28;20048;-88
2022/08/25 01:05:05;;;;;;;17.30;13.90;;;;;;;;;;5040149;28;20077;-88
2022/08/25 01:07:33;;;;;;;15.95;14.02;;;;;;;;;;5043306;28;20052;-87
2022/08/25 01:10:03;;;;;;;16.83;14.35;;;;;;;;;;5039219;28;20055;-88
2022/08/25 01:12:30;;;;;;;18.70;13.68;;;;;;;;;;5038577;28;20485;-88
2022/08/25 01:14:58;;;;;;;15.15;13.40;;;;;;;;;;5040559;28;20045;-88
2022/08/25 01:17:27;;;;;;;15.60;13.98;;;;;;;;;;5039605;28;20460;-88
2022/08/25 01:19:54;;;;;;;14.88;13.48;;;;;;;;;;5041051;28;20044;-86
2022/08/25 01:22:25;;;;;;;16.88;14.45;;;;;;;;;;5037786;28;20080;-88
2022/08/25 01:24:52;;;;;;;17.33;13.18;;;;;;;;;;5039781;28;20144;-87
2022/08/25 01:27:20;;;;;;;15.13;13.52;;;;;;;;;;5040724;28;20479;-87
2022/08/25 01:29:50;;;;;;;15.05;13.45;;;;;;;;;;5038896;28;20075;-88
2022/08/25 01:32:17;;;;;;;15.52;13.70;;;;;;;;;;5037309;28;20424;-88
2022/08/25 01:34:45;;;;;;;15.85;13.25;;;;;;;;;;5042757;28;20075;-88
2022/08/25 01:37:14;;;;;;;16.73;14.77;;;;;;;;;;5040229;28;20080;-87
2022/08/25 01:39:42;;;;;;;14.50;13.00;;;;;;;;;;5040067;28;20075;-87
2022/08/25 01:42:12;;;;;;;16.10;13.90;;;;;;;;;;5040942;28;20126;-87
2022/08/25 01:44:41;;;;;;;17.05;13.43;;;;;;;;;;5039369;28;20041;-88
2022/08/25 01:47:12;;;;;;;14.88;13.30;;;;;;;;;;5039858;28;20398;-87
2022/08/25 01:49:41;;;;;;;19.50;15.27;;;;;;;;;;5040230;28;20049;-87
2022/08/25 01:52:25;;;;;;;18.20;15.30;;;;;;;;;;5040308;28;20049;-87
2022/08/25 01:54:54;;;;;;;18.52;15.65;;;;;;;;;;5039397;28;20064;-87
2022/08/25 01:57:31;;;;;;;16.10;14.23;;;;;;;;;;5044906;28;20076;-87
2022/08/25 02:00:01;;;;;;;17.50;14.80;;;;;;;;;;5041120;28;20068;-87
2022/08/25 02:02:30;;;;;;;16.50;14.80;;;;;;;;;;5042581;28;20440;-87
2022/08/25 02:04:59;;;;;;;17.98;15.35;;;;;;;;;;5041761;28;20068;-87
2022/08/25 02:07:26;;;;;;;15.50;14.00;;;;;;;;;;5041155;28;20068;-87
2022/08/25 02:09:54;;;;;;;16.30;14.57;;;;;;;;;;5041492;28;20045;-87
2022/08/25 02:12:24;;;;;;;17.23;15.30;;;;;;;;;;5041779;28;20053;-87
2022/08/25 02:14:52;;;;;;;18.40;15.90;;;;;;;;;;5041099;28;20075;-87
2022/08/25 02:17:26;;;;;;;18.65;14.70;;;;;;;;;;5041179;28;20053;-87
2022/08/25 02:19:55;;;;;;;17.85;15.50;;;;;;;;;;5041398;28;20045;-87
2022/08/25 02:22:24;;;;;;;20.63;15.98;;;;;;;;;;5041490;28;20053;-87
2022/08/25 02:24:54;;;;;;;18.38;16.23;;;;;;;;;;5041604;28;20052;-87
2022/08/25 02:27:24;;;;;;;21.17;16.20;;;;;;;;;;5041113;28;20068;-87
2022/08/25 02:29:51;;;;;;;16.85;15.18;;;;;;;;;;5040795;28;20045;-87
2022/08/25 02:32:23;;;;;;;16.75;15.00;;;;;;;;;;5041514;28;20547;-87
2022/08/25 02:34:53;;;;;;;19.00;14.77;;;;;;;;;;5041188;28;20123;-87
2022/08/25 02:37:25;;;;;;;17.55;15.73;;;;;;;;;;5041563;28;20087;-87
2022/08/25 02:40:09;;;;;;;;;;;;;;;;;;;;;
2022/08/25 02:42:37;;;;;;;20.83;16.20;;;;;;;;;;5059392;28;20132;-87
2022/08/25 02:45:09;;;;;;;18.38;15.98;;;;;;;;;;5042319;28;20519;-88
2022/08/25 02:47:36;;;;;;;17.67;15.88;;;;;;;;;;5041877;28;20075;-87
2022/08/25 02:50:04;;;;;;;19.42;16.05;;;;;;;;;;5040892;28;20053;-87
2022/08/25 02:52:32;;;;;;;18.52;16.55;;;;;;;;;;5040539;28;20049;-87
2022/08/25 02:55:01;;;;;;;20.33;16.55;;;;;;;;;;5040252;28;20071;-87
2022/08/25 02:57:29;;;;;;;17.55;15.73;;;;;;;;;;5047660;28;20059;-86
2022/08/25 03:00:23;;;;;;;25.20;18.15;;;;;;;;;;5061429;28;20056;-87
2022/08/25 03:02:50;;;;;;;21.90;16.45;;;;;;;;;;5046273;28;20053;-86
2022/08/25 03:05:18;;;;;;;20.45;18.00;;;;;;;;;;5040186;28;20555;-86
2022/08/25 03:07:45;;;;;;;17.92;15.85;;;;;;;;;;5040388;28;20068;-87
2022/08/25 03:10:15;;;;;;;17.38;15.35;;;;;;;;;;5043514;28;20059;-87
2022/08/25 03:12:57;;;;;;;19.88;16.95;;;;;;;;;;5044486;28;20067;-87
2022/08/25 03:15:26;;;;;;;18.58;16.25;;;;;;;;;;5042119;28;20126;-86
2022/08/25 03:18:00;;;;;;;17.83;16.13;;;;;;;;;;5024805;28;20137;-87
2022/08/25 03:20:29;;;;;;;21.58;17.30;;;;;;;;;;5039895;28;20561;-87
2022/08/25 03:22:59;;;;;;;21.27;18.25;;;;;;;;;;5043018;28;20083;-87
2022/08/25 03:28:13;;;;;;;22.35;17.90;;;;;;;;;;5057103;28;20140;-87
2022/08/25 03:30:41;;;;;;;21.17;18.10;;;;;;;;;;5039890;28;20045;-87
2022/08/25 03:33:13;;;;;;;21.70;16.95;;;;;;;;;;5039312;28;20493;-87
2022/08/25 03:35:43;;;;;;;21.77;17.23;;;;;;;;;;5039792;28;20053;-87
2022/08/25 03:38:15;;;;;;;19.80;16.95;;;;;;;;;;5040126;28;20080;-86
2022/08/25 03:40:46;;;;;;;18.85;16.95;;;;;;;;;;5039576;28;20552;-87
2022/08/25 03:43:17;;;;;;;18.88;16.92;;;;;;;;;;5041015;28;20136;-87
2022/08/25 03:45:47;;;;;;;23.08;19.05;;;;;;;;;;5040113;28;20493;-87
2022/08/25 03:48:21;;;;;;;25.60;19.23;;;;;;;;;;5040375;28;20060;-87
2022/08/25 03:50:50;;;;;;;25.80;19.73;;;;;;;;;;5040095;28;20053;-87
2022/08/25 03:53:18;;;;;;;17.55;15.73;;;;;;;;;;5040126;28;20057;-87
2022/08/25 03:55:46;;;;;;;21.98;16.60;;;;;;;;;;5039294;28;20064;-87
2022/08/25 03:58:13;;;;;;;23.40;16.08;;;;;;;;;;5039458;28;20138;-87
2022/08/25 04:00:41;;;;;;;19.45;16.33;;;;;;;;;;5040019;28;20107;-87
2022/08/25 04:03:08;;;;;;;18.88;16.10;;;;;;;;;;5040828;28;20064;-87
2022/08/25 04:05:35;;;;;;;18.58;16.63;;;;;;;;;;5040108;28;20041;-87
2022/08/25 04:08:03;;;;;;;19.00;16.42;;;;;;;;;;5040352;28;20103;-87
2022/08/25 04:10:31;;;;;;;18.70;16.15;;;;;;;;;;5041148;28;20071;-88
2022/08/25 04:13:00;;;;;;;20.38;16.23;;;;;;;;;;5039863;28;20049;-87
2022/08/25 04:15:28;;;;;;;20.38;16.85;;;;;;;;;;5039081;28;20099;-87
2022/08/25 04:17:57;;;;;;;19.70;17.00;;;;;;;;;;5042908;28;20059;-87
2022/08/25 04:20:27;;;;;;;18.83;16.75;;;;;;;;;;5043440;28;20048;-87
2022/08/25 04:22:59;;;;;;;19.48;17.38;;;;;;;;;;5043914;28;20049;-86
2022/08/25 04:25:26;;;;;;;21.98;19.27;;;;;;;;;;5044373;28;20063;-87
2022/08/25 04:27:54;;;;;;;21.38;18.77;;;;;;;;;;5044852;28;20055;-87
2022/08/25 04:30:22;;;;;;;19.55;17.27;;;;;;;;;;5043984;28;20041;-87
2022/08/25 04:32:50;;;;;;;22.20;17.23;;;;;;;;;;5043356;28;20053;-87
2022/08/25 04:35:17;;;;;;;25.15;18.98;;;;;;;;;;5027871;28;20045;-87
2022/08/25 04:38:00;;;;;;;22.15;18.08;;;;;;;;;;5060039;28;20099;-87
2022/08/25 04:40:28;;;;;;;20.48;18.23;;;;;;;;;;5043191;28;20072;-86
2022/08/25 04:42:56;;;;;;;19.35;17.08;;;;;;;;;;5044260;28;20063;-87
2022/08/25 04:45:26;;;;;;;20.52;17.80;;;;;;;;;;5043291;28;20045;-87
2022/08/25 04:47:59;;;;;;;23.05;18.60;;;;;;;;;;5042874;28;20063;-87
2022/08/25 04:50:27;;;;;;;21.33;18.27;;;;;;;;;;5042539;28;20049;-86
2022/08/25 04:52:54;;;;;;;22.05;19.80;;;;;;;;;;5042759;28;20489;-87
2022/08/25 04:55:22;;;;;;;30.27;23.92;;;;;;;;;;5042968;28;20071;-87
2022/08/25 04:57:50;;;;;;;31.70;22.60;;;;;;;;;;5042953;28;20087;-87
2022/08/25 05:00:19;;;;;;;36.13;29.48;;;;;;;;;;5043123;28;20059;-87
2022/08/25 05:02:48;;;;;;;48.70;40.45;;;;;;;;;;5044025;28;20056;-87
2022/08/25 05:05:15;;;;;;;52.70;42.92;;;;;;;;;;5050658;28;20056;-87
2022/08/25 05:07:44;;;;;;;27.60;23.27;;;;;;;;;;5074765;28;20049;-87
2022/08/25 05:10:11;;;;;;;19.30;16.85;;;;;;;;;;5046801;28;20060;-87
2022/08/25 05:12:38;;;;;;;16.33;14.80;;;;;;;;;;5042591;28;20067;-87
2022/08/25 05:15:49;;;;;;;17.67;15.77;;;;;;;;;;5043931;28;20049;-87
2022/08/25 05:17:54;;;;;;;16.02;13.35;;;;;;;;;;5061056;28;20056;-88
2022/08/25 05:20:23;;;;;;;24.52;17.95;;;;;;;;;;5043337;28;20055;-89
2022/08/25 05:22:50;;;;;;;16.25;11.63;;;;;;;;;;5026264;28;20053;-89
2022/08/25 05:25:17;;;;;;;20.13;12.20;;;;;;;;;;5043406;28;20478;-86
2022/08/25 05:27:45;;;;;;;17.73;11.68;;;;;;;;;;5043389;28;20405;-88
2022/08/25 05:30:12;;;;;;;11.30;10.07;;;;;;;;;;5043271;28;20103;-88
2022/08/25 05:32:44;;;;;;;9.80;8.85;;;;;;;;;;5060908;28;20053;-89
2022/08/25 05:35:11;;;;;;;9.35;8.40;;;;;;;;;;5043614;28;20045;-88
2022/08/25 05:37:39;;;;;;;17.80;9.82;;;;;;;;;;5043572;28;20049;-88
2022/08/25 05:40:07;;;;;;;10.10;8.98;;;;;;;;;;5043587;28;20044;-86
2022/08/25 05:42:36;;;;;;;9.68;8.68;;;;;;;;;;5044586;28;20049;-90
2022/08/25 05:45:04;;;;;;;11.57;8.93;;;;;;;;;;5060562;28;20056;-88
2022/08/25 05:47:33;;;;;;;10.25;8.50;;;;;;;;;;5043122;28;20053;-88
2022/08/25 05:50:00;;;;;;;8.73;7.30;;;;;;;;;;5043003;28;20049;-88
2022/08/25 05:52:28;;;;;;;8.50;7.45;;;;;;;;;;5041784;28;20045;-88
2022/08/25 05:54:57;;;;;;;7.65;7.03;;;;;;;;;;5058217;28;20056;-88
2022/08/25 05:57:25;;;;;;;10.27;7.47;;;;;;;;;;5043071;28;20045;-88
2022/08/25 05:59:52;;;;;;;19.73;8.50;;;;;;;;;;5042920;28;20080;-88
2022/08/25 06:05:07;;;;;;;9.75;7.63;;;;;;;;;;5059075;28;20045;-88
2022/08/25 06:07:36;;;;;;;17.05;8.27;;;;;;;;;;5044389;28;20053;-87
2022/08/25 06:10:05;;;;;;;26.42;9.40;;;;;;;;;;5047234;28;20083;-88
2022/08/25 06:12:35;;;;;;;34.30;9.43;;;;;;;;;;5045643;28;20045;-88
2022/08/25 06:15:03;;;;;;;39.67;10.05;;;;;;;;;;5045404;28;20079;-88
2022/08/25 06:17:33;;;;;;;29.95;9.75;;;;;;;;;;5045184;28;20044;-89
2022/08/25 06:20:04;;;;;;;34.75;9.68;;;;;;;;;;5043538;28;20451;-89
2022/08/25 06:22:33;;;;;;;40.58;11.07;;;;;;;;;;5027333;28;20437;-89
2022/08/25 06:25:00;;;;;;;35.45;10.52;;;;;;;;;;5042983;28;20045;-88
2022/08/25 06:27:31;;;;;;;47.63;11.55;;;;;;;;;;5044520;28;20091;-89
2022/08/25 06:30:02;;;;;;;38.08;10.20;;;;;;;;;;5061225;28;20053;-88
2022/08/25 06:32:35;;;;;;;59.20;12.90;;;;;;;;;;5043905;28;20069;-89
2022/08/25 06:35:07;;;;;;;42.95;12.30;;;;;;;;;;5043261;28;20057;-89
2022/08/25 06:37:34;;;;;;;27.00;11.40;;;;;;;;;;5043095;28;20551;-89
2022/08/25 06:40:03;;;;;;;28.00;11.95;;;;;;;;;;5043741;28;20053;-88
2022/08/25 06:42:31;;;;;;;35.50;12.52;;;;;;;;;;5045383;28;20127;-88
2022/08/25 06:45:00;;;;;;;37.53;13.32;;;;;;;;;;5048212;28;20102;-89
2022/08/25 06:47:27;;;;;;;33.60;12.52;;;;;;;;;;5046579;28;20056;-88
2022/08/25 06:49:55;;;;;;;35.08;11.98;;;;;;;;;;5046797;28;20064;-88
2022/08/25 06:52:23;;;;;;;35.78;13.80;;;;;;;;;;5047876;28;20136;-87
2022/08/25 06:54:55;;;;;;;49.72;14.35;;;;;;;;;;5032905;28;20052;-89
2022/08/25 06:57:22;;;;;;;35.28;13.02;;;;;;;;;;5047922;28;20045;-88
2022/08/25 06:59:50;;;;;;;31.45;12.00;;;;;;;;;;5047244;28;20489;-87
2022/08/25 07:02:20;;;;;;;26.48;12.02;;;;;;;;;;5048952;28;20055;-89
2022/08/25 07:04:52;;;;;;;26.08;11.18;;;;;;;;;;5047122;28;20063;-88
2022/08/25 07:07:20;;;;;;;27.63;12.02;;;;;;;;;;5049050;28;20057;-89
2022/08/25 07:09:48;;;;;;;29.08;12.20;;;;;;;;;;5048605;28;20049;-89
2022/08/25 07:12:16;;;;;;;20.30;12.35;;;;;;;;;;5059101;28;20033;-89
2022/08/25 07:14:43;;;;;;;16.05;11.02;;;;;;;;;;5056414;28;20049;-89
2022/08/25 07:17:33;;;;;;;19.02;11.15;;;;;;;;;;5056867;28;20073;-88
2022/08/25 07:20:02;;;;;;;23.80;10.85;;;;;;;;;;5066904;28;20084;-89
2022/08/25 07:22:32;;;;;;;13.57;10.13;;;;;;;;;;5034698;28;20060;-89
2022/08/25 07:25:15;;;;;;;12.15;9.40;;;;;;;;;;5050379;28;20087;-89
2022/08/25 07:27:54;;;;;;;11.38;9.63;;;;;;;;;;5048922;28;20045;-89
2022/08/25 07:30:27;;;;;;;11.90;8.75;;;;;;;;;;5046062;28;20412;-88
2022/08/25 07:32:57;;;;;;;18.73;9.40;;;;;;;;;;5046609;28;20049;-89
2022/08/25 07:35:31;;;;;;;18.80;9.93;;;;;;;;;;5046895;28;20132;-88
2022/08/25 07:38:06;;;;;;;12.52;7.85;;;;;;;;;;5031896;28;20053;-87
2022/08/25 07:40:53;;;;;;;12.45;8.00;;;;;;;;;;5063623;28;20072;-90
2022/08/25 07:43:25;;;;;;;14.35;8.40;;;;;;;;;;5033512;28;20398;-88
2022/08/25 07:45:56;;;;;;;9.15;8.13;;;;;;;;;;5046435;28;20053;-86
2022/08/25 07:48:27;;;;;;;12.95;8.27;;;;;;;;;;5048129;28;20575;-88
2022/08/25 07:50:58;;;;;;;10.50;7.80;;;;;;;;;;5049025;28;20140;-86
2022/08/25 07:53:31;;;;;;;12.20;8.45;;;;;;;;;;5046328;28;20057;-90
2022/08/25 07:55:59;;;;;;;11.45;7.82;;;;;;;;;;5029378;28;20052;-89
2022/08/25 07:58:27;;;;;;;10.93;8.10;;;;;;;;;;5045644;28;20044;-90
2022/08/25 08:00:54;;;;;;;16.63;8.93;;;;;;;;;;5046495;28;20057;-89
2022/08/25 08:03:22;;;;;;;13.20;9.25;;;;;;;;;;5045510;28;20052;-88
2022/08/25 08:06:10;;;;;;;10.85;7.90;;;;;;;;;;5048198;28;20122;-87
2022/08/25 08:08:42;;;;;;;15.25;8.27;;;;;;;;;;5044761;28;20053;-89
2022/08/25 08:11:25;;;;;;;10.05;8.55;;;;;;;;;;5047244;28;20049;-88
2022/08/25 08:13:57;;;;;;;9.68;7.78;;;;;;;;;;5047057;28;20075;-88
2022/08/25 08:16:25;;;;;;;14.95;8.43;;;;;;;;;;5046494;28;20045;-86
2022/08/25 08:18:56;;;;;;;9.43;6.97;;;;;;;;;;5047305;28;20057;-89
2022/08/25 08:21:36;;;;;;;10.35;6.45;;;;;;;;;;5046371;28;20053;-88
2022/08/25 08:24:09;;;;;;;7.85;6.70;;;;;;;;;;5064286;28;20049;-90
2022/08/25 08:26:58;;;;;;;11.00;5.50;;;;;;;;;;5051415;28;20139;-87
2022/08/25 08:29:26;;;;;;;9.75;6.40;;;;;;;;;;5031126;28;20110;-94
2022/08/25 08:32:17;;;;;;;11.48;6.40;;;;;;;;;;5046275;28;20052;-88
2022/08/25 08:35:07;;;;;;;8.52;6.43;;;;;;;;;;5047101;28;20129;-89
2022/08/25 08:37:40;;;;;;;12.05;6.65;;;;;;;;;;5045240;28;20049;-88
2022/08/25 08:40:09;;;;;;;11.10;7.00;;;;;;;;;;5044354;28;20060;-88
2022/08/25 08:42:56;;;;;;;9.57;5.97;;;;;;;;;;5062797;28;20103;-88
2022/08/25 08:45:33;;;;;;;7.68;4.90;;;;;;;;;;5043808;28;20045;-88
2022/08/25 08:48:22;;;;;;;7.40;4.82;;;;;;;;;;5061786;28;20117;-89
2022/08/25 08:51:05;;;;;;;5.85;5.22;;;;;;;;;;5062185;28;20044;-91
2022/08/25 08:53:54;;;;;;;11.85;5.43;;;;;;;;;;5044181;28;20041;-88
2022/08/25 08:56:26;;;;;;;7.15;5.45;;;;;;;;;;5046699;28;20044;-87
2022/08/25 08:59:07;;;;;;;7.53;5.03;;;;;;;;;;5062901;28;20056;-86
2022/08/25 09:01:47;;;;;;;5.00;4.50;;;;;;;;;;5045382;28;20056;-91
2022/08/25 09:04:25;;;;;;;8.02;5.05;;;;;;;;;;5049235;28;20049;-87
2022/08/25 09:06:55;;;;;;;6.18;5.22;;;;;;;;;;5047697;28;20049;-89
2022/08/25 09:09:28;;;;;;;9.40;5.57;;;;;;;;;;5044860;28;20051;-88
2022/08/25 09:12:04;;;;;;;11.55;5.20;;;;;;;;;;5045227;28;20057;-87
2022/08/25 09:14:43;;;;;;;12.45;5.90;;;;;;;;;;5044774;28;20146;-87
2022/08/25 09:17:33;;;;;;;11.20;6.22;;;;;;;;;;5061979;28;20045;-90
2022/08/25 09:20:29;;;;;;;6.80;6.00;;;;;;;;;;5071401;28;20067;-89
2022/08/25 09:23:10;;;;;;;14.52;7.78;;;;;;;;;;5059160;28;20060;-90
2022/08/25 09:25:50;;;;;;;8.27;5.93;;;;;;;;;;5047418;28;20049;-89
2022/08/25 09:28:23;;;;;;;11.00;6.30;;;;;;;;;;5043941;28;20119;-90
2022/08/25 09:30:57;;;;;;;20.58;7.57;;;;;;;;;;5042689;28;20055;-87
2022/08/25 09:33:25;;;;;;;9.63;6.57;;;;;;;;;;5041039;28;20055;-88
2022/08/25 09:35:55;;;;;;;10.52;7.32;;;;;;;;;;5059911;28;20071;-89
2022/08/25 09:38:24;;;;;;;12.60;6.82;;;;;;;;;;5042100;28;20049;-88
2022/08/25 09:40:56;;;;;;;9.77;7.13;;;;;;;;;;5042432;28;20057;-90
2022/08/25 09:43:27;;;;;;;11.40;6.93;;;;;;;;;;5043355;28;20049;-90
2022/08/25 09:46:14;;;;;;;10.35;5.78;;;;;;;;;;5042489;28;20485;-90
2022/08/25 09:48:45;;;;;;;9.13;6.07;;;;;;;;;;5043538;28;20081;-89
2022/08/25 09:51:28;;;;;;;9.23;5.50;;;;;;;;;;5043279;28;20053;-87
2022/08/25 09:54:14;;;;;;;7.70;5.55;;;;;;;;;;5044022;28;20079;-88
2022/08/25 09:56:50;;;;;;;7.65;6.13;;;;;;;;;;5042916;28;20049;-88
2022/08/25 09:59:18;;;;;;;7.13;5.07;;;;;;;;;;5042829;28;20052;-90
2022/08/25 10:01:52;;;;;;;13.10;6.13;;;;;;;;;;5046303;28;20382;-88
2022/08/25 10:04:32;;;;;;;10.45;6.65;;;;;;;;;;5044640;28;20052;-89
2022/08/25 10:07:01;;;;;;;5.78;5.15;;;;;;;;;;5042189;28;20041;-89
2022/08/25 10:09:33;;;;;;;10.77;6.68;;;;;;;;;;5043104;28;20456;-88
2022/08/25 10:12:03;;;;;;;8.43;6.25;;;;;;;;;;5041691;28;20048;-89
2022/08/25 10:14:32;;;;;;;8.02;6.28;;;;;;;;;;5042970;28;20053;-89
2022/08/25 10:17:26;;;;;;;14.82;6.93;;;;;;;;;;5044000;28;20085;-88
2022/08/25 10:20:11;;;;;;;10.20;6.82;;;;;;;;;;5046500;28;20083;-88
2022/08/25 10:22:39;;;;;;;7.60;6.13;;;;;;;;;;5046249;28;20049;-88
2022/08/25 10:25:08;;;;;;;10.80;7.00;;;;;;;;;;5047865;28;20409;-89
2022/08/25 10:27:39;;;;;;;8.27;6.28;;;;;;;;;;5046076;28;20049;-88
2022/08/25 10:30:06;;;;;;;8.73;6.32;;;;;;;;;;5044565;28;20049;-86
2022/08/25 10:32:53;;;;;;;10.98;7.28;;;;;;;;;;5045108;28;20060;-89
2022/08/25 10:35:40;;;;;;;9.65;7.35;;;;;;;;;;5046707;28;20057;-88
2022/08/25 10:38:27;;;;;;;11.48;7.65;;;;;;;;;;5046353;28;20048;-88
2022/08/25 10:41:15;;;;;;;11.85;6.85;;;;;;;;;;5046147;28;20048;-88
2022/08/25 10:43:47;;;;;;;12.65;8.30;;;;;;;;;;5046084;28;20171;-91
2022/08/25 10:46:38;;;;;;;9.70;7.45;;;;;;;;;;5046288;28;20485;-90
2022/08/25 10:49:22;;;;;;;11.30;5.80;;;;;;;;;;5046727;28;20076;-87
2022/08/25 10:51:50;;;;;;;7.68;6.75;;;;;;;;;;5028907;28;20052;-86
2022/08/25 10:54:29;;;;;;;8.10;7.05;;;;;;;;;;5045336;28;20049;-88
2022/08/25 10:57:08;;;;;;;9.13;6.40;;;;;;;;;;5046567;28;20051;-88
2022/08/25 10:59:53;;;;;;;17.02;6.72;;;;;;;;;;5046296;28;20098;-89
2022/08/25 11:02:37;;;;;;;10.77;6.65;;;;;;;;;;5046678;28;20449;-90
2022/08/25 11:05:27;;;;;;;10.85;6.70;;;;;;;;;;5045741;28;20052;-89
2022/08/25 11:08:21;;;;;;;14.95;6.75;;;;;;;;;;5064171;28;20108;-87
2022/08/25 11:10:52;;;;;;;7.07;6.15;;;;;;;;;;5045916;28;20087;-87
2022/08/25 11:13:26;;;;;;;8.93;6.05;;;;;;;;;;5051077;28;20051;-89
2022/08/25 11:16:12;;;;;;;7.78;5.40;;;;;;;;;;5054011;28;20053;-89
2022/08/25 11:18:50;;;;;;;7.00;4.88;;;;;;;;;;5062087;28;20060;-87
2022/08/25 11:21:21;;;;;;;6.22;5.15;;;;;;;;;;5045564;28;20045;-88
2022/08/25 11:23:52;;;;;;;10.27;5.10;;;;;;;;;;5046094;28;20045;-88
2022/08/25 11:26:28;;;;;;;7.57;5.35;;;;;;;;;;5044528;28;20051;-88
2022/08/25 11:29:11;;;;;;;14.15;5.38;;;;;;;;;;5044881;28;20135;-89
2022/08/25 11:31:50;;;;;;;8.90;5.25;;;;;;;;;;5046088;28;20048;-89
2022/08/25 11:34:21;;;;;;;17.05;5.85;;;;;;;;;;5063868;28;20040;-89
2022/08/25 11:37:06;;;;;;;;;;;;;;;;;;;;;
2022/08/25 11:39:56;;;;;;;5.53;5.03;;;;;;;;;;5053721;28;20049;-88
2022/08/25 11:42:23;;;;;;;5.70;4.90;;;;;;;;;;5044767;28;20089;-87
2022/08/25 11:45:06;;;;;;;8.80;4.82;;;;;;;;;;5045191;28;20064;-88
2022/08/25 11:47:37;;;;;;;6.38;4.63;;;;;;;;;;5045084;28;20056;-88
2022/08/25 11:50:22;;;;;;;6.82;4.88;;;;;;;;;;5043326;28;20045;-88
2022/08/25 11:52:59;;;;;;;9.32;4.85;;;;;;;;;;5044278;28;20059;-90
2022/08/25 11:56:04;;;;;;;8.88;5.05;;;;;;;;;;5029183;28;20481;-87
2022/08/25 11:58:40;;;;;;;6.55;4.82;;;;;;;;;;4980194;28;20117;-88
2022/08/25 12:01:31;;;;;;;10.85;5.72;;;;;;;;;;5037128;28;20493;-89
2022/08/25 12:04:17;;;;;;;8.00;5.05;;;;;;;;;;5016019;28;20045;-89
2022/08/25 12:07:16;;;;;;;14.20;5.40;;;;;;;;;;5042881;28;20386;-90
2022/08/25 12:09:52;;;;;;;8.43;4.10;;;;;;;;;;5044559;28;20048;-88
2022/08/25 12:12:29;;;;;;;10.80;5.22;;;;;;;;;;5061779;28;20056;-89
2022/08/25 12:15:12;;;;;;;12.07;4.57;;;;;;;;;;5040974;28;20471;-89
2022/08/25 12:17:40;;;;;;;7.55;4.50;;;;;;;;;;5040434;28;20079;-89
2022/08/25 12:20:08;;;;;;;7.45;4.50;;;;;;;;;;5040506;28;20114;-89
2022/08/25 12:22:35;;;;;;;5.70;4.60;;;;;;;;;;5040221;28;20049;-92
2022/08/25 12:25:27;;;;;;;7.95;4.97;;;;;;;;;;5040063;28;20071;-92
2022/08/25 12:28:05;;;;;;;11.95;5.20;;;;;;;;;;5040360;28;20059;-91
2022/08/25 12:30:42;;;;;;;8.30;4.72;;;;;;;;;;5040274;28;20049;-91
2022/08/25 12:33:09;;;;;;;8.75;5.22;;;;;;;;;;5039587;28;20151;-92
2022/08/25 12:35:40;;;;;;;7.57;4.57;;;;;;;;;;5040449;28;20123;-90
2022/08/25 12:38:07;;;;;;;6.28;4.43;;;;;;;;;;5040084;28;20049;-89
2022/08/25 12:40:35;;;;;;;6.68;4.63;;;;;;;;;;5038930;28;20053;-90
2022/08/25 12:43:04;;;;;;;11.98;4.88;;;;;;;;;;5040775;28;20049;-92
2022/08/25 12:45:38;;;;;;;9.73;4.78;;;;;;;;;;5039693;28;20056;-89
2022/08/25 12:48:24;;;;;;;5.03;4.57;;;;;;;;;;5040011;28;20060;-92
2022/08/25 12:51:15;;;;;;;6.32;4.63;;;;;;;;;;5039247;28;20060;-88
2022/08/25 12:53:45;;;;;;;6.10;4.55;;;;;;;;;;5031979;28;20048;-91
2022/08/25 12:56:21;;;;;;;7.82;4.72;;;;;;;;;;5039063;28;20102;-89
2022/08/25 12:59:02;;;;;;;6.47;4.93;;;;;;;;;;5039572;28;20087;-92
2022/08/25 13:01:41;;;;;;;9.30;4.82;;;;;;;;;;5039582;28;20063;-91
2022/08/25 13:04:09;;;;;;;8.50;4.65;;;;;;;;;;5039700;28;20060;-88
2022/08/25 13:07:01;;;;;;;5.72;4.40;;;;;;;;;;5039416;28;20053;-89
2022/08/25 13:09:57;;;;;;;6.10;4.18;;;;;;;;;;5039705;28;20091;-88
2022/08/25 13:12:40;;;;;;;7.30;4.38;;;;;;;;;;5039505;28;20048;-89
2022/08/25 13:15:10;;;;;;;6.65;4.78;;;;;;;;;;5039672;28;20060;-92
2022/08/25 13:17:38;;;;;;;6.20;4.72;;;;;;;;;;5039337;28;20052;-91
2022/08/25 13:20:12;;;;;;;6.55;4.53;;;;;;;;;;5038940;28;20048;-89
2022/08/25 13:22:49;;;;;;;6.47;4.90;;;;;;;;;;5040744;28;20489;-88
2022/08/25 13:25:24;;;;;;;5.60;4.55;;;;;;;;;;5039957;28;20489;-89
2022/08/25 13:28:00;;;;;;;4.97;4.47;;;;;;;;;;5040162;28;20092;-88
2022/08/25 13:30:28;;;;;;;6.38;4.53;;;;;;;;;;5039231;28;20068;-89
2022/08/25 13:32:56;;;;;;;8.32;5.40;;;;;;;;;;5038936;28;20057;-88
2022/08/25 13:35:29;;;;;;;7.32;5.05;;;;;;;;;;5039465;28;20045;-89
2022/08/25 13:38:15;;;;;;;6.45;4.40;;;;;;;;;;5039200;28;20063;-89
2022/08/25 13:40:43;;;;;;;8.25;4.75;;;;;;;;;;5056000;28;20141;-91
2022/08/25 13:43:12;;;;;;;7.50;4.97;;;;;;;;;;5039387;28;20132;-88
2022/08/25 13:45:43;;;;;;;5.72;4.88;;;;;;;;;;5040096;28;20143;-90
2022/08/25 13:48:12;;;;;;;5.30;4.05;;;;;;;;;;5039091;28;20470;-89
2022/08/25 13:50:50;;;;;;;4.95;4.45;;;;;;;;;;5039335;28;20052;-90
2022/08/25 13:53:26;;;;;;;8.10;4.88;;;;;;;;;;5056524;28;20051;-88
2022/08/25 13:55:59;;;;;;;6.53;4.47;;;;;;;;;;5059757;28;20052;-88
2022/08/25 13:58:28;;;;;;;4.78;4.47;;;;;;;;;;5046620;23;20049;-81
2022/08/25 14:01:14;;;;;;;6.40;5.50;;;;;;;;;;5018961;28;20465;-80
2022/08/25 14:04:20;;;;;;;6.93;5.15;;;;;;;;;;5034949;28;20124;-82
2022/08/25 14:06:48;;;;;;;8.05;5.00;;;;;;;;;;5019430;28;20049;-81
2022/08/25 14:09:17;;;;;;;5.22;4.72;;;;;;;;;;5038851;28;20049;-81
2022/08/25 14:11:57;;;;;;;5.50;5.00;;;;;;;;;;5038865;28;20417;-80
2022/08/25 14:14:24;;;;;;;6.80;5.07;;;;;;;;;;5037518;28;20041;-81
2022/08/25 14:16:51;;;;;;;7.55;5.28;;;;;;;;;;5054674;28;20044;-80
2022/08/25 14:19:23;;;;;;;5.72;5.10;;;;;;;;;;5037555;28;20071;-82
2022/08/25 14:21:52;;;;;;;8.45;6.00;;;;;;;;;;5037370;28;20556;-81
2022/08/25 14:24:23;;;;;;;7.38;5.78;;;;;;;;;;5055085;28;20525;-81
2022/08/25 14:26:50;;;;;;;6.07;5.50;;;;;;;;;;5037333;28;20458;-81
2022/08/25 14:29:21;;;;;;;8.98;5.50;;;;;;;;;;5036675;28;20100;-81
2022/08/25 14:31:48;;;;;;;8.18;5.35;;;;;;;;;;5036845;28;20049;-81
2022/08/25 14:34:18;;;;;;;9.82;6.18;;;;;;;;;;5037357;28;20109;-82
2022/08/25 14:36:47;;;;;;;6.45;4.70;;;;;;;;;;5036626;28;20057;-81
2022/08/25 14:39:14;;;;;;;10.10;5.40;;;;;;;;;;5036771;28;20049;-81
2022/08/25 14:41:42;;;;;;;5.38;4.88;;;;;;;;;;5036125;28;20044;-81
2022/08/25 14:44:19;;;;;;;5.80;5.10;;;;;;;;;;5038342;28;20049;-81
2022/08/25 14:46:51;;;;;;;7.18;5.38;;;;;;;;;;5036795;28;20453;-82
2022/08/25 14:49:20;;;;;;;5.90;5.40;;;;;;;;;;5037411;28;20418;-81
2022/08/25 14:51:51;;;;;;;6.05;5.43;;;;;;;;;;5054880;28;20454;-81
2022/08/25 14:54:22;;;;;;;6.00;5.32;;;;;;;;;;5037530;28;20073;-82
2022/08/25 14:56:49;;;;;;;8.95;5.88;;;;;;;;;;5054526;28;20044;-81
2022/08/25 14:59:17;;;;;;;6.15;5.63;;;;;;;;;;5037057;28;20061;-81
2022/08/25 15:01:45;;;;;;;7.78;6.13;;;;;;;;;;5037419;28;20049;-82
2022/08/25 15:04:17;;;;;;;10.35;6.00;;;;;;;;;;5040883;28;20048;-81
2022/08/25 15:06:45;;;;;;;7.22;5.47;;;;;;;;;;5040903;28;20497;-83
2022/08/25 15:09:15;;;;;;;6.40;5.80;;;;;;;;;;5040687;28;20108;-81
2022/08/25 15:11:45;;;;;;;8.93;5.75;;;;;;;;;;5040483;28;20485;-83